createdAt,value
2022-08-01T00:00:28.602Z,0.00
2022-08-01T00:01:28.594Z,0.00
2022-08-01T00:02:28.602Z,0.00
2022-08-01T00:03:28.586Z,0.00
2022-08-01T00:04:28.543Z,0.00
2022-08-01T00:05:28.528Z,0.00
2022-08-01T00:06:28.583Z,0.00
2022-08-01T00:07:28.511Z,0.00
2022-08-01T00:08:28.505Z,0.00
2022-08-01T00:09:28.510Z,0.00
2022-08-01T00:10:28.503Z,0.00
2022-08-01T00:11:28.487Z,0.00
2022-08-01T00:12:28.483Z,0.00
2022-08-01T00:13:28.440Z,0.00
2022-08-01T00:14:32.506Z,0.00
2022-08-01T00:15:28.473Z,0.00
2022-08-01T00:16:28.478Z,0.00
2022-08-01T00:17:28.403Z,0.00
2022-08-01T00:18:28.380Z,0.00
2022-08-01T00:19:28.378Z,0.00
2022-08-01T00:20:28.387Z,0.00
2022-08-01T00:21:28.372Z,0.00
2022-08-01T00:22:28.336Z,0.00
2022-08-01T00:23:28.336Z,0.00
2022-08-01T00:24:28.310Z,0.00
2022-08-01T00:25:33.874Z,0.00
2022-08-01T00:26:28.397Z,0.00
2022-08-01T00:27:28.275Z,0.00
2022-08-01T00:28:28.273Z,0.00
2022-08-01T00:30:12.331Z,0.00
2022-08-01T00:30:28.259Z,0.00
2022-08-01T00:31:28.261Z,0.00
2022-08-01T00:32:28.273Z,0.00
2022-08-01T00:33:28.225Z,0.00
2022-08-01T00:34:28.201Z,0.00
2022-08-01T00:35:28.208Z,0.00
2022-08-01T00:36:28.192Z,0.00
2022-08-01T00:37:28.176Z,0.00
2022-08-01T00:38:28.182Z,0.00
2022-08-01T00:39:28.162Z,0.00
2022-08-01T00:40:28.141Z,0.00
2022-08-01T00:41:28.169Z,0.00
2022-08-01T00:42:28.127Z,0.00
2022-08-01T00:43:28.095Z,0.00
2022-08-01T00:44:28.092Z,0.00
2022-08-01T00:45:28.077Z,0.00
2022-08-01T00:46:28.099Z,0.00
2022-08-01T00:47:28.082Z,0.00
2022-08-01T00:48:28.050Z,0.00
2022-08-01T00:49:28.119Z,0.00
2022-08-01T00:50:28.023Z,0.00
2022-08-01T00:51:28.046Z,0.00
2022-08-01T00:52:28.008Z,0.00
2022-08-01T00:53:28.007Z,0.00
2022-08-01T00:54:28.002Z,0.00
2022-08-01T00:55:27.998Z,0.00
2022-08-01T00:56:27.971Z,0.00
2022-08-01T00:58:02.622Z,0.00
2022-08-01T00:58:27.969Z,0.00
2022-08-01T00:59:27.938Z,0.00
2022-08-01T01:00:27.967Z,0.00
2022-08-01T01:01:39.182Z,0.00
2022-08-01T01:02:27.891Z,0.00
2022-08-01T01:03:56.347Z,0.00
2022-08-01T01:04:27.867Z,0.00
2022-08-01T01:05:27.854Z,0.00
2022-08-01T01:06:28.928Z,0.00
2022-08-01T01:07:27.848Z,0.00
2022-08-01T01:08:27.815Z,0.00
2022-08-01T01:09:27.845Z,0.00
2022-08-01T01:10:27.798Z,0.00
2022-08-01T01:11:27.820Z,0.00
2022-08-01T01:12:27.811Z,0.00
2022-08-01T01:13:27.767Z,0.00
2022-08-01T01:14:27.767Z,0.00
2022-08-01T01:15:27.796Z,0.00
2022-08-01T01:16:27.756Z,0.00
2022-08-01T01:17:49.508Z,0.00
2022-08-01T01:18:27.744Z,0.00
2022-08-01T01:19:27.698Z,0.00
2022-08-01T01:20:27.681Z,0.00
2022-08-01T01:21:27.712Z,0.00
2022-08-01T01:22:27.654Z,0.00
2022-08-01T01:23:27.659Z,0.00
2022-08-01T01:24:27.654Z,0.00
2022-08-01T01:25:27.641Z,0.00
2022-08-01T01:26:27.667Z,0.00
2022-08-01T01:27:27.622Z,0.00
2022-08-01T01:28:27.588Z,0.00
2022-08-01T01:29:27.593Z,0.00
2022-08-01T01:30:27.598Z,0.00
2022-08-01T01:31:27.574Z,0.00
2022-08-01T01:32:30.898Z,0.00
2022-08-01T01:33:27.546Z,0.00
2022-08-01T01:34:27.524Z,0.00
2022-08-01T01:35:27.509Z,0.00
2022-08-01T01:36:27.568Z,0.00
2022-08-01T01:37:27.493Z,0.00
2022-08-01T01:38:27.476Z,0.00
2022-08-01T01:39:27.494Z,0.00
2022-08-01T01:40:27.474Z,0.00
2022-08-01T01:41:27.454Z,0.00
2022-08-01T01:42:27.430Z,0.00
2022-08-01T01:43:28.973Z,0.00
2022-08-01T01:44:27.419Z,0.00
2022-08-01T01:45:27.401Z,0.00
2022-08-01T01:46:27.413Z,0.00
2022-08-01T01:47:27.369Z,0.00
2022-08-01T01:48:27.364Z,0.00
2022-08-01T01:49:27.406Z,0.00
2022-08-01T01:50:27.359Z,0.00
2022-08-01T01:51:27.355Z,0.00
2022-08-01T01:52:27.321Z,0.00
2022-08-01T01:53:27.300Z,0.00
2022-08-01T01:54:27.300Z,0.00
2022-08-01T01:55:27.283Z,0.00
2022-08-01T01:56:27.299Z,0.00
2022-08-01T01:57:27.257Z,0.00
2022-08-01T01:58:27.255Z,0.00
2022-08-01T01:59:27.250Z,0.00
2022-08-01T02:00:27.259Z,0.00
2022-08-01T02:01:58.842Z,0.00
2022-08-01T02:02:27.218Z,0.00
2022-08-01T02:03:27.195Z,0.00
2022-08-01T02:04:27.186Z,0.00
2022-08-01T02:05:27.168Z,0.00
2022-08-01T02:06:27.186Z,0.00
2022-08-01T02:07:27.156Z,0.00
2022-08-01T02:08:27.161Z,0.00
2022-08-01T02:09:27.120Z,0.00
2022-08-01T02:10:28.694Z,0.00
2022-08-01T02:11:27.135Z,0.00
2022-08-01T02:12:27.101Z,0.00
2022-08-01T02:13:27.086Z,0.00
2022-08-01T02:14:27.109Z,0.00
2022-08-01T02:15:27.059Z,0.00
2022-08-01T02:16:27.065Z,0.00
2022-08-01T02:17:27.031Z,0.00
2022-08-01T02:18:27.027Z,0.00
2022-08-01T02:19:27.009Z,0.00
2022-08-01T02:20:27.009Z,0.00
2022-08-01T02:21:27.008Z,0.00
2022-08-01T02:22:26.981Z,0.00
2022-08-01T02:23:26.981Z,0.00
2022-08-01T02:24:30.667Z,0.00
2022-08-01T02:25:26.943Z,0.00
2022-08-01T02:26:26.957Z,0.00
2022-08-01T02:27:26.927Z,0.00
2022-08-01T02:28:26.923Z,0.00
2022-08-01T02:29:26.914Z,0.00
2022-08-01T02:30:26.897Z,0.00
2022-08-01T02:31:26.897Z,0.00
2022-08-01T02:32:26.877Z,0.00
2022-08-01T02:33:26.872Z,0.00
2022-08-01T02:34:26.841Z,0.00
2022-08-01T02:35:26.832Z,0.00
2022-08-01T02:36:32.352Z,0.00
2022-08-01T02:37:26.817Z,0.00
2022-08-01T02:38:26.792Z,0.00
2022-08-01T02:39:26.793Z,0.00
2022-08-01T02:40:26.771Z,0.00
2022-08-01T02:41:26.791Z,0.00
2022-08-01T02:42:26.752Z,0.00
2022-08-01T02:43:26.768Z,0.00
2022-08-01T02:44:26.725Z,0.00
2022-08-01T02:45:26.727Z,0.00
2022-08-01T02:46:26.739Z,0.00
2022-08-01T02:47:26.696Z,0.00
2022-08-01T02:48:26.685Z,0.00
2022-08-01T02:49:26.778Z,0.00
2022-08-01T02:50:26.657Z,0.00
2022-08-01T02:51:26.675Z,0.00
2022-08-01T02:52:26.642Z,0.00
2022-08-01T02:53:44.360Z,0.00
2022-08-01T02:54:26.621Z,0.00
2022-08-01T02:55:26.608Z,0.00
2022-08-01T02:56:26.615Z,0.00
2022-08-01T02:57:33.566Z,0.00
2022-08-01T02:58:29.215Z,0.00
2022-08-01T02:59:26.561Z,0.00
2022-08-01T03:00:26.546Z,0.00
2022-08-01T03:01:27.834Z,0.00
2022-08-01T03:02:26.530Z,0.00
2022-08-01T03:03:26.536Z,0.00
2022-08-01T03:04:26.508Z,0.00
2022-08-01T03:05:26.528Z,0.00
2022-08-01T03:06:26.517Z,0.00
2022-08-01T03:07:34.394Z,0.00
2022-08-01T03:08:26.471Z,0.00
2022-08-01T03:09:26.455Z,0.00
2022-08-01T03:10:26.435Z,0.00
2022-08-01T03:11:26.443Z,0.00
2022-08-01T03:12:26.409Z,0.00
2022-08-01T03:13:26.428Z,0.00
2022-08-01T03:14:26.389Z,0.00
2022-08-01T03:15:26.380Z,0.00
2022-08-01T03:16:26.400Z,0.00
2022-08-01T03:17:26.353Z,0.00
2022-08-01T03:18:26.343Z,0.00
2022-08-01T03:19:26.331Z,0.00
2022-08-01T03:20:26.321Z,0.00
2022-08-01T03:21:26.330Z,0.00
2022-08-01T03:22:26.297Z,0.00
2022-08-01T03:23:38.125Z,0.00
2022-08-01T03:24:26.288Z,0.00
2022-08-01T03:25:26.282Z,0.00
2022-08-01T03:26:26.273Z,0.00
2022-08-01T03:27:26.251Z,0.00
2022-08-01T03:28:29.623Z,0.00
2022-08-01T03:29:26.236Z,4.00
2022-08-01T03:30:26.205Z,0.00
2022-08-01T03:31:26.231Z,0.00
2022-08-01T03:32:26.185Z,0.00
2022-08-01T03:33:26.173Z,4.00
2022-08-01T03:34:26.181Z,0.00
2022-08-01T03:35:26.154Z,4.00
2022-08-01T03:36:26.180Z,4.00
2022-08-01T03:37:26.150Z,4.00
2022-08-01T03:38:26.128Z,4.00
2022-08-01T03:39:26.122Z,4.00
2022-08-01T03:40:26.142Z,4.00
2022-08-01T03:41:26.112Z,4.00
2022-08-01T03:42:26.072Z,4.00
2022-08-01T03:43:26.076Z,4.00
2022-08-01T03:44:26.063Z,4.00
2022-08-01T03:45:26.055Z,8.00
2022-08-01T03:46:26.079Z,8.00
2022-08-01T03:47:26.020Z,8.00
2022-08-01T03:48:26.005Z,12.00
2022-08-01T03:49:26.087Z,12.00
2022-08-01T03:50:25.987Z,12.00
2022-08-01T03:51:25.997Z,12.00
2022-08-01T03:52:25.985Z,12.00
2022-08-01T03:53:25.956Z,16.00
2022-08-01T03:54:25.939Z,20.00
2022-08-01T03:55:25.967Z,28.00
2022-08-01T03:56:25.940Z,28.00
2022-08-01T03:57:36.117Z,32.00
2022-08-01T03:58:25.923Z,32.00
2022-08-01T03:59:25.897Z,32.00
2022-08-01T04:00:25.881Z,32.00
2022-08-01T04:01:25.933Z,36.00
2022-08-01T04:02:25.861Z,40.00
2022-08-01T04:03:25.861Z,44.00
2022-08-01T04:04:25.851Z,48.00
2022-08-01T04:05:25.835Z,48.00
2022-08-01T04:06:25.836Z,56.00
2022-08-01T04:07:25.821Z,60.00
2022-08-01T04:08:27.259Z,64.00
2022-08-01T04:09:25.788Z,68.00
2022-08-01T04:10:25.782Z,80.00
2022-08-01T04:11:25.782Z,88.00
2022-08-01T04:12:25.741Z,92.00
2022-08-01T04:13:25.753Z,96.00
2022-08-01T04:14:25.732Z,100.00
2022-08-01T04:15:25.712Z,108.00
2022-08-01T04:16:25.710Z,112.00
2022-08-01T04:17:25.689Z,112.00
2022-08-01T04:18:25.664Z,124.00
2022-08-01T04:19:25.678Z,128.00
2022-08-01T04:20:25.657Z,140.00
2022-08-01T04:21:25.668Z,148.00
2022-08-01T04:22:25.640Z,164.00
2022-08-01T04:23:25.616Z,176.00
2022-08-01T04:24:25.609Z,192.00
2022-08-01T04:25:25.618Z,200.00
2022-08-01T04:26:25.612Z,208.00
2022-08-01T04:27:49.072Z,208.00
2022-08-01T04:28:25.585Z,196.00
2022-08-01T04:29:25.560Z,196.00
2022-08-01T04:30:25.725Z,196.00
2022-08-01T04:31:25.572Z,192.00
2022-08-01T04:32:25.522Z,196.00
2022-08-01T04:33:25.508Z,188.00
2022-08-01T04:34:25.525Z,188.00
2022-08-01T04:36:04.112Z,172.00
2022-08-01T04:36:25.501Z,164.00
2022-08-01T04:37:25.454Z,164.00
2022-08-01T04:38:25.476Z,148.00
2022-08-01T04:39:25.440Z,144.00
2022-08-01T04:40:25.459Z,148.00
2022-08-01T04:41:25.429Z,160.00
2022-08-01T04:42:28.135Z,176.00
2022-08-01T04:43:25.397Z,188.00
2022-08-01T04:44:27.819Z,188.00
2022-08-01T04:45:25.372Z,184.00
2022-08-01T04:46:25.374Z,184.00
2022-08-01T04:47:25.356Z,176.00
2022-08-01T04:48:25.340Z,172.00
2022-08-01T04:49:25.387Z,160.00
2022-08-01T04:50:25.317Z,164.00
2022-08-01T04:51:25.324Z,188.00
2022-08-01T04:52:25.379Z,220.00
2022-08-01T04:53:25.274Z,224.00
2022-08-01T04:54:25.260Z,228.00
2022-08-01T04:55:25.251Z,248.00
2022-08-01T04:56:25.267Z,256.00
2022-08-01T04:57:25.225Z,264.00
2022-08-01T04:58:25.223Z,240.00
2022-08-01T04:59:25.245Z,228.00
2022-08-01T05:00:25.205Z,224.00
2022-08-01T05:01:25.278Z,204.00
2022-08-01T05:02:25.220Z,200.00
2022-08-01T05:03:25.187Z,196.00
2022-08-01T05:04:25.161Z,192.00
2022-08-01T05:05:25.142Z,196.00
2022-08-01T05:06:25.161Z,216.00
2022-08-01T05:07:25.116Z,236.00
2022-08-01T05:08:25.115Z,244.00
2022-08-01T05:09:28.216Z,256.00
2022-08-01T05:10:25.095Z,248.00
2022-08-01T05:11:25.080Z,224.00
2022-08-01T05:12:25.069Z,212.00
2022-08-01T05:13:25.058Z,208.00
2022-08-01T05:14:25.035Z,216.00
2022-08-01T05:15:25.135Z,228.00
2022-08-01T05:16:25.036Z,248.00
2022-08-01T05:17:25.027Z,276.00
2022-08-01T05:18:28.523Z,300.00
2022-08-01T05:19:25.033Z,328.00
2022-08-01T05:20:24.978Z,396.00
2022-08-01T05:21:24.987Z,464.00
2022-08-01T05:22:24.955Z,524.00
2022-08-01T05:23:38.364Z,564.00
2022-08-01T05:24:24.942Z,568.00
2022-08-01T05:25:49.679Z,556.00
2022-08-01T05:26:24.985Z,568.00
2022-08-01T05:27:24.891Z,524.00
2022-08-01T05:28:24.899Z,476.00
2022-08-01T05:29:24.870Z,424.00
2022-08-01T05:30:24.858Z,388.00
2022-08-01T05:31:24.884Z,360.00
2022-08-01T05:32:24.876Z,340.00
2022-08-01T05:33:24.881Z,324.00
2022-08-01T05:34:24.862Z,328.00
2022-08-01T05:35:24.830Z,312.00
2022-08-01T05:36:24.859Z,312.00
2022-08-01T05:37:24.780Z,312.00
2022-08-01T05:38:24.773Z,304.00
2022-08-01T05:39:24.748Z,284.00
2022-08-01T05:40:24.800Z,268.00
2022-08-01T05:41:24.838Z,268.00
2022-08-01T05:42:24.748Z,268.00
2022-08-01T05:43:28.777Z,260.00
2022-08-01T05:44:24.699Z,244.00
2022-08-01T05:45:24.717Z,228.00
2022-08-01T05:46:26.141Z,224.00
2022-08-01T05:47:24.686Z,228.00
2022-08-01T05:48:24.656Z,236.00
2022-08-01T05:49:24.747Z,244.00
2022-08-01T05:50:24.635Z,256.00
2022-08-01T05:51:24.668Z,256.00
2022-08-01T05:52:24.659Z,252.00
2022-08-01T05:53:24.609Z,252.00
2022-08-01T05:54:24.586Z,236.00
2022-08-01T05:55:24.596Z,232.00
2022-08-01T05:56:24.591Z,252.00
2022-08-01T05:57:24.561Z,284.00
2022-08-01T05:58:24.614Z,336.00
2022-08-01T05:59:24.614Z,388.00
2022-08-01T06:00:24.543Z,412.00
2022-08-01T06:01:24.545Z,392.00
2022-08-01T06:02:24.607Z,372.00
2022-08-01T06:03:24.511Z,324.00
2022-08-01T06:04:24.518Z,308.00
2022-08-01T06:05:24.490Z,304.00
2022-08-01T06:06:25.408Z,308.00
2022-08-01T06:07:24.501Z,308.00
2022-08-01T06:08:24.434Z,288.00
2022-08-01T06:09:24.458Z,264.00
2022-08-01T06:10:24.454Z,248.00
2022-08-01T06:11:24.478Z,228.00
2022-08-01T06:12:24.464Z,192.00
2022-08-01T06:13:24.435Z,168.00
2022-08-01T06:14:24.386Z,212.00
2022-08-01T06:15:24.390Z,252.00
2022-08-01T06:16:24.403Z,268.00
2022-08-01T06:17:24.374Z,292.00
2022-08-01T06:18:24.448Z,332.00
2022-08-01T06:19:24.329Z,360.00
2022-08-01T06:20:24.321Z,372.00
2022-08-01T06:21:24.397Z,380.00
2022-08-01T06:22:24.299Z,380.00
2022-08-01T06:23:31.842Z,400.00
2022-08-01T06:24:24.265Z,428.00
2022-08-01T06:25:24.255Z,444.00
2022-08-01T06:26:24.261Z,444.00
2022-08-01T06:27:24.222Z,468.00
2022-08-01T06:28:24.208Z,484.00
2022-08-01T06:29:24.221Z,488.00
2022-08-01T06:30:24.193Z,500.00
2022-08-01T06:31:24.221Z,516.00
2022-08-01T06:32:26.972Z,524.00
2022-08-01T06:33:24.186Z,532.00
2022-08-01T06:34:24.146Z,536.00
2022-08-01T06:35:24.154Z,560.00
2022-08-01T06:36:24.168Z,584.00
2022-08-01T06:37:24.222Z,604.00
2022-08-01T06:38:24.189Z,636.00
2022-08-01T06:39:24.148Z,680.00
2022-08-01T06:40:24.204Z,732.00
2022-08-01T06:41:24.107Z,776.00
2022-08-01T06:42:24.114Z,800.00
2022-08-01T06:43:24.078Z,836.00
2022-08-01T06:44:24.067Z,864.00
2022-08-01T06:45:24.065Z,896.00
2022-08-01T06:46:24.059Z,984.00
2022-08-01T06:47:24.018Z,1072.00
2022-08-01T06:48:24.019Z,1176.00
2022-08-01T06:49:24.047Z,1276.00
2022-08-01T06:50:23.991Z,1368.00
2022-08-01T06:51:23.969Z,1480.00
2022-08-01T06:52:23.987Z,1544.00
2022-08-01T06:53:23.939Z,1540.00
2022-08-01T06:54:23.928Z,1480.00
2022-08-01T06:55:23.905Z,1380.00
2022-08-01T06:56:23.956Z,1272.00
2022-08-01T06:57:23.889Z,1224.00
2022-08-01T06:58:31.817Z,1212.00
2022-08-01T06:59:23.877Z,1228.00
2022-08-01T07:00:23.842Z,1284.00
2022-08-01T07:01:23.982Z,1312.00
2022-08-01T07:02:23.879Z,1328.00
2022-08-01T07:03:23.820Z,1364.00
2022-08-01T07:04:23.859Z,1392.00
2022-08-01T07:05:23.779Z,1404.00
2022-08-01T07:06:23.935Z,1392.00
2022-08-01T07:07:23.788Z,1392.00
2022-08-01T07:08:23.775Z,1444.00
2022-08-01T07:09:23.766Z,1504.00
2022-08-01T07:10:23.819Z,1528.00
2022-08-01T07:11:23.741Z,1532.00
2022-08-01T07:12:23.711Z,1544.00
2022-08-01T07:13:23.694Z,1596.00
2022-08-01T07:14:23.696Z,1656.00
2022-08-01T07:15:23.696Z,1760.00
2022-08-01T07:16:23.704Z,1820.00
2022-08-01T07:17:23.647Z,1792.00
2022-08-01T07:18:26.313Z,1776.00
2022-08-01T07:19:23.623Z,1728.00
2022-08-01T07:20:23.642Z,1652.00
2022-08-01T07:21:40.536Z,1660.00
2022-08-01T07:22:23.801Z,1696.00
2022-08-01T07:23:24.660Z,1728.00
2022-08-01T07:24:23.597Z,1712.00
2022-08-01T07:25:23.589Z,1656.00
2022-08-01T07:26:23.586Z,1524.00
2022-08-01T07:27:25.720Z,1288.00
2022-08-01T07:28:23.528Z,1024.00
2022-08-01T07:29:23.518Z,792.00
2022-08-01T07:30:23.514Z,672.00
2022-08-01T07:31:23.538Z,824.00
2022-08-01T07:32:23.493Z,996.00
2022-08-01T07:33:23.523Z,1188.00
2022-08-01T07:34:23.472Z,1244.00
2022-08-01T07:35:23.469Z,1104.00
2022-08-01T07:36:23.464Z,1012.00
2022-08-01T07:37:46.318Z,1056.00
2022-08-01T07:38:23.423Z,1096.00
2022-08-01T07:39:23.419Z,1200.00
2022-08-01T07:40:23.395Z,1084.00
2022-08-01T07:41:45.462Z,1096.00
2022-08-01T07:42:23.378Z,1084.00
2022-08-01T07:43:23.363Z,1052.00
2022-08-01T07:44:23.352Z,1012.00
2022-08-01T07:45:23.348Z,1036.00
2022-08-01T07:46:23.344Z,1100.00
2022-08-01T07:47:23.319Z,1180.00
2022-08-01T07:48:23.339Z,1292.00
2022-08-01T07:49:23.378Z,1380.00
2022-08-01T07:50:23.309Z,1492.00
2022-08-01T07:51:23.304Z,1588.00
2022-08-01T07:52:23.261Z,1640.00
2022-08-01T07:53:23.246Z,1680.00
2022-08-01T07:54:23.237Z,1716.00
2022-08-01T07:55:23.263Z,1732.00
2022-08-01T07:56:23.239Z,1672.00
2022-08-01T07:57:23.200Z,1628.00
2022-08-01T07:58:23.208Z,1596.00
2022-08-01T07:59:26.007Z,1584.00
2022-08-01T08:00:23.209Z,1572.00
2022-08-01T08:01:23.339Z,1560.00
2022-08-01T08:02:23.352Z,1556.00
2022-08-01T08:03:23.151Z,1624.00
2022-08-01T08:04:23.129Z,1636.00
2022-08-01T08:05:57.981Z,1684.00
2022-08-01T08:06:23.156Z,1924.00
2022-08-01T08:07:23.108Z,1940.00
2022-08-01T08:08:23.104Z,2080.00
2022-08-01T08:09:23.097Z,2208.00
2022-08-01T08:10:23.083Z,2312.00
2022-08-01T08:11:23.078Z,2276.00
2022-08-01T08:12:28.898Z,2044.00
2022-08-01T08:13:23.052Z,1836.00
2022-08-01T08:14:23.060Z,1744.00
2022-08-01T08:15:23.043Z,1668.00
2022-08-01T08:16:23.017Z,1520.00
2022-08-01T08:17:23.011Z,1412.00
2022-08-01T08:18:22.999Z,1316.00
2022-08-01T08:19:22.966Z,1340.00
2022-08-01T08:20:22.985Z,1508.00
2022-08-01T08:21:22.959Z,1804.00
2022-08-01T08:22:22.955Z,2028.00
2022-08-01T08:23:26.469Z,2244.00
2022-08-01T08:24:26.238Z,2380.00
2022-08-01T08:25:22.899Z,2480.00
2022-08-01T08:26:22.938Z,2436.00
2022-08-01T08:27:22.883Z,2260.00
2022-08-01T08:28:26.509Z,2220.00
2022-08-01T08:29:22.888Z,2100.00
2022-08-01T08:30:22.854Z,2116.00
2022-08-01T08:31:24.855Z,1996.00
2022-08-01T08:32:22.827Z,1716.00
2022-08-01T08:33:22.813Z,1504.00
2022-08-01T08:34:22.811Z,1444.00
2022-08-01T08:35:23.078Z,1412.00
2022-08-01T08:36:30.852Z,1524.00
2022-08-01T08:37:22.763Z,1496.00
2022-08-01T08:38:28.357Z,1436.00
2022-08-01T08:39:22.779Z,1396.00
2022-08-01T08:40:22.722Z,1348.00
2022-08-01T08:41:22.783Z,1288.00
2022-08-01T08:42:22.699Z,1216.00
2022-08-01T08:43:22.709Z,1200.00
2022-08-01T08:44:22.763Z,1216.00
2022-08-01T08:45:22.674Z,1136.00
2022-08-01T08:46:27.977Z,1120.00
2022-08-01T08:47:22.666Z,1332.00
2022-08-01T08:48:26.031Z,1520.00
2022-08-01T08:49:22.768Z,1548.00
2022-08-01T08:50:22.692Z,1476.00
2022-08-01T08:51:22.640Z,1376.00
2022-08-01T08:52:22.598Z,1272.00
2022-08-01T08:53:22.610Z,1176.00
2022-08-01T08:54:22.596Z,1092.00
2022-08-01T08:55:22.576Z,1044.00
2022-08-01T08:56:22.606Z,1080.00
2022-08-01T08:57:22.559Z,1252.00
2022-08-01T08:58:26.275Z,1396.00
2022-08-01T08:59:22.593Z,1416.00
2022-08-01T09:00:22.563Z,1536.00
2022-08-01T09:01:22.765Z,1732.00
2022-08-01T09:02:22.534Z,1848.00
2022-08-01T09:03:22.567Z,1912.00
2022-08-01T09:04:22.714Z,1880.00
2022-08-01T09:05:22.503Z,1772.00
2022-08-01T09:06:22.494Z,1384.00
2022-08-01T09:07:22.454Z,1196.00
2022-08-01T09:08:22.472Z,1132.00
2022-08-01T09:09:22.404Z,1264.00
2022-08-01T09:10:22.423Z,1596.00
2022-08-01T09:11:23.170Z,1724.00
2022-08-01T09:12:22.402Z,1912.00
2022-08-01T09:13:22.403Z,2032.00
2022-08-01T09:14:22.383Z,2088.00
2022-08-01T09:15:22.361Z,2156.00
2022-08-01T09:16:22.360Z,2288.00
2022-08-01T09:17:22.357Z,2348.00
2022-08-01T09:18:22.325Z,2468.00
2022-08-01T09:19:39.812Z,2524.00
2022-08-01T09:20:22.302Z,2520.00
2022-08-01T09:21:22.327Z,2552.00
2022-08-01T09:22:22.432Z,2520.00
2022-08-01T09:23:22.295Z,2484.00
2022-08-01T09:24:28.410Z,2544.00
2022-08-01T09:25:22.248Z,2596.00
2022-08-01T09:26:22.259Z,2700.00
2022-08-01T09:27:22.778Z,2672.00
2022-08-01T09:28:22.208Z,2756.00
2022-08-01T09:29:29.007Z,2616.00
2022-08-01T09:30:23.769Z,2496.00
2022-08-01T09:31:22.252Z,2516.00
2022-08-01T09:32:22.164Z,2480.00
2022-08-01T09:33:22.223Z,2392.00
2022-08-01T09:34:22.150Z,2236.00
2022-08-01T09:35:22.121Z,2064.00
2022-08-01T09:36:22.135Z,2164.00
2022-08-01T09:37:24.165Z,2320.00
2022-08-01T09:38:22.119Z,2492.00
2022-08-01T09:39:22.128Z,2552.00
2022-08-01T09:40:22.124Z,2536.00
2022-08-01T09:41:22.105Z,2560.00
2022-08-01T09:42:28.672Z,2420.00
2022-08-01T09:43:22.083Z,2272.00
2022-08-01T09:44:31.145Z,2204.00
2022-08-01T09:45:23.735Z,1952.00
2022-08-01T09:46:22.029Z,1704.00
2022-08-01T09:47:23.882Z,1508.00
2022-08-01T09:48:22.471Z,1300.00
2022-08-01T09:49:22.133Z,1228.00
2022-08-01T09:50:21.992Z,1252.00
2022-08-01T09:51:59.201Z,1184.00
2022-08-01T09:52:25.996Z,1116.00
2022-08-01T09:53:29.631Z,1120.00
2022-08-01T09:54:21.941Z,1240.00
2022-08-01T09:55:21.980Z,1344.00
2022-08-01T09:56:22.033Z,1388.00
2022-08-01T09:57:21.902Z,1452.00
2022-08-01T09:58:21.888Z,1328.00
2022-08-01T09:59:21.870Z,1128.00
2022-08-01T10:00:43.801Z,1028.00
2022-08-01T10:01:21.865Z,1140.00
2022-08-01T10:02:21.845Z,1308.00
2022-08-01T10:03:21.964Z,1500.00
2022-08-01T10:04:21.803Z,1588.00
2022-08-01T10:05:21.829Z,1688.00
2022-08-01T10:06:24.800Z,1924.00
2022-08-01T10:07:21.784Z,2040.00
2022-08-01T10:08:23.118Z,2260.00
2022-08-01T10:09:21.742Z,2404.00
2022-08-01T10:10:21.762Z,2600.00
2022-08-01T10:11:21.765Z,2636.00
2022-08-01T10:12:21.765Z,2624.00
2022-08-01T10:13:21.706Z,2600.00
2022-08-01T10:14:21.734Z,2532.00
2022-08-01T10:15:21.702Z,2572.00
2022-08-01T10:16:21.730Z,2848.00
2022-08-01T10:17:22.770Z,3032.00
2022-08-01T10:18:26.446Z,3036.00
2022-08-01T10:19:21.671Z,2908.00
2022-08-01T10:20:29.958Z,3160.00
2022-08-01T10:21:53.213Z,3504.00
2022-08-01T10:22:21.656Z,3512.00
2022-08-01T10:23:21.582Z,3496.00
2022-08-01T10:24:21.598Z,3688.00
2022-08-01T10:25:42.851Z,3720.00
2022-08-01T10:26:21.595Z,3836.00
2022-08-01T10:27:35.836Z,3808.00
2022-08-01T10:28:24.070Z,3836.00
2022-08-01T10:29:24.211Z,3848.00
2022-08-01T10:30:23.739Z,3840.00
2022-08-01T10:31:30.931Z,3844.00
2022-08-01T10:32:21.511Z,3916.00
2022-08-01T10:33:49.852Z,3920.00
2022-08-01T10:34:22.954Z,3848.00
2022-08-01T10:35:46.555Z,3836.00
2022-08-01T10:36:21.470Z,3728.00
2022-08-01T10:37:21.454Z,3704.00
2022-08-01T10:38:21.447Z,3768.00
2022-08-01T10:39:21.428Z,3692.00
2022-08-01T10:40:37.045Z,3480.00
2022-08-01T10:41:21.429Z,3144.00
2022-08-01T10:42:21.401Z,2884.00
2022-08-01T10:43:22.204Z,2728.00
2022-08-01T10:44:21.347Z,2544.00
2022-08-01T10:45:21.443Z,2380.00
2022-08-01T10:46:21.376Z,2280.00
2022-08-01T10:47:26.831Z,2164.00
2022-08-01T10:48:21.327Z,2032.00
2022-08-01T10:49:21.397Z,1916.00
2022-08-01T10:50:21.844Z,1884.00
2022-08-01T10:51:21.319Z,1948.00
2022-08-01T10:52:21.273Z,2168.00
2022-08-01T10:53:23.304Z,2316.00
2022-08-01T10:54:21.266Z,2292.00
2022-08-01T10:55:21.247Z,2288.00
2022-08-01T10:56:21.247Z,2256.00
2022-08-01T10:57:22.947Z,2192.00
2022-08-01T10:58:21.204Z,2176.00
2022-08-01T10:59:49.098Z,2188.00
2022-08-01T11:00:21.196Z,2208.00
2022-08-01T11:01:21.337Z,2288.00
2022-08-01T11:02:21.157Z,2496.00
2022-08-01T11:03:35.843Z,2560.00
2022-08-01T11:04:21.137Z,2548.00
2022-08-01T11:05:21.114Z,2552.00
2022-08-01T11:06:21.139Z,2544.00
2022-08-01T11:07:21.125Z,2444.00
2022-08-01T11:08:21.125Z,2408.00
2022-08-01T11:09:21.140Z,2420.00
2022-08-01T11:10:23.753Z,2504.00
2022-08-01T11:11:21.074Z,2540.00
2022-08-01T11:12:24.552Z,2520.00
2022-08-01T11:13:21.029Z,2564.00
2022-08-01T11:14:26.374Z,2500.00
2022-08-01T11:15:29.612Z,2348.00
2022-08-01T11:16:24.149Z,2172.00
2022-08-01T11:17:21.005Z,2048.00
2022-08-01T11:18:20.946Z,1904.00
2022-08-01T11:19:21.034Z,1828.00
2022-08-01T11:20:20.934Z,1896.00
2022-08-01T11:21:58.541Z,2008.00
2022-08-01T11:22:25.249Z,1960.00
2022-08-01T11:23:21.637Z,1912.00
2022-08-01T11:24:20.910Z,1852.00
2022-08-01T11:25:20.922Z,1808.00
2022-08-01T11:26:29.025Z,1708.00
2022-08-01T11:27:23.677Z,1616.00
2022-08-01T11:28:29.045Z,1508.00
2022-08-01T11:29:22.312Z,1496.00
2022-08-01T11:30:21.416Z,1584.00
2022-08-01T11:31:20.860Z,1720.00
2022-08-01T11:32:20.796Z,1792.00
2022-08-01T11:33:20.826Z,1804.00
2022-08-01T11:34:20.790Z,1852.00
2022-08-01T11:35:20.769Z,1852.00
2022-08-01T11:36:36.812Z,1964.00
2022-08-01T11:37:20.774Z,2004.00
2022-08-01T11:38:20.783Z,2116.00
2022-08-01T11:39:20.719Z,2152.00
2022-08-01T11:40:20.713Z,2304.00
2022-08-01T11:41:20.716Z,2476.00
2022-08-01T11:42:20.925Z,2660.00
2022-08-01T11:43:20.692Z,2820.00
2022-08-01T11:44:20.907Z,2972.00
2022-08-01T11:45:20.646Z,3076.00
2022-08-01T11:46:20.700Z,3140.00
2022-08-01T11:47:21.178Z,3220.00
2022-08-01T11:48:20.642Z,3072.00
2022-08-01T11:49:20.724Z,2988.00
2022-08-01T11:50:20.618Z,2920.00
2022-08-01T11:51:25.642Z,2884.00
2022-08-01T11:52:20.692Z,2884.00
2022-08-01T11:53:22.073Z,2900.00
2022-08-01T11:54:35.305Z,2996.00
2022-08-01T11:55:20.553Z,3112.00
2022-08-01T11:56:20.546Z,3284.00
2022-08-01T11:57:22.854Z,3408.00
2022-08-01T11:58:22.410Z,3380.00
2022-08-01T11:59:20.518Z,3376.00
2022-08-01T12:00:20.487Z,3312.00
2022-08-01T12:01:20.483Z,3268.00
2022-08-01T12:02:30.213Z,3252.00
2022-08-01T12:03:33.087Z,3220.00
2022-08-01T12:04:20.455Z,3240.00
2022-08-01T12:05:20.445Z,3256.00
2022-08-01T12:06:20.415Z,3288.00
2022-08-01T12:07:20.433Z,3292.00
2022-08-01T12:08:20.375Z,3272.00
2022-08-01T12:09:20.405Z,3244.00
2022-08-01T12:10:20.361Z,3196.00
2022-08-01T12:11:20.362Z,3160.00
2022-08-01T12:12:20.328Z,3124.00
2022-08-01T12:13:20.340Z,3136.00
2022-08-01T12:14:20.342Z,3144.00
2022-08-01T12:15:20.307Z,3100.00
2022-08-01T12:16:20.306Z,3108.00
2022-08-01T12:17:20.290Z,3088.00
2022-08-01T12:18:20.279Z,3112.00
2022-08-01T12:19:20.283Z,3216.00
2022-08-01T12:20:20.244Z,3284.00
2022-08-01T12:21:20.329Z,3384.00
2022-08-01T12:22:20.224Z,3464.00
2022-08-01T12:23:20.201Z,3492.00
2022-08-01T12:24:20.228Z,3552.00
2022-08-01T12:25:20.189Z,3560.00
2022-08-01T12:26:29.780Z,3632.00
2022-08-01T12:27:20.202Z,3668.00
2022-08-01T12:28:20.199Z,3716.00
2022-08-01T12:29:20.185Z,3712.00
2022-08-01T12:30:20.183Z,3704.00
2022-08-01T12:31:20.159Z,3768.00
2022-08-01T12:32:20.135Z,3880.00